Time;durP1;ratioP1;P1;durP2;ratioP2;P2;SDS_P1;SDS_P2;PMS_P1;PMS_P2;Temp;Humidity;BMP_temperature;BMP_pressure;BME280_temperature;BME280_humidity;BME280_pressure;Samples;Min_cycle;Max_cycle;Signal;HPM_P1;HPM_P2
2022/09/10 00:00:59;;;;;;;6.78;2.92;;;;;;;-148.88;100.00;75037.94;5033267;28;20036;-77
2022/09/10 00:06:31;;;;;;;6.38;3.20;;;;;;;-148.88;100.00;75044.03;5593050;22;20045;-84
2022/09/10 00:08:59;;;;;;;4.30;2.75;;;;;;;-148.88;100.00;75037.94;5041293;28;20129;-83
2022/09/10 00:11:45;;;;;;;4.88;2.97;;;;;;;-148.88;100.00;75046.06;5041826;28;20041;-83
2022/09/10 00:14:21;;;;;;;6.70;3.20;;;;;;;-148.88;100.00;75037.94;5022936;28;20034;-82
2022/09/10 00:16:50;;;;;;;4.97;3.03;;;;;;;-148.88;100.00;75029.81;5017487;28;20042;-83
2022/09/10 00:19:20;;;;;;;5.15;2.75;;;;;;;-148.88;100.00;75033.88;5023614;28;20018;-84
2022/09/10 00:21:53;;;;;;;4.35;2.85;;;;;;;-148.88;100.00;75029.81;5023576;28;20025;-84
2022/09/10 00:24:22;;;;;;;5.00;3.22;;;;;;;-148.88;100.00;75042.00;5022686;28;20026;-83
2022/09/10 00:26:50;;;;;;;8.60;3.15;;;;;;;-148.88;100.00;75042.00;5021981;28;20030;-84
2022/09/10 00:29:21;;;;;;;3.92;2.67;;;;;;;-148.88;100.00;75037.94;5022058;28;20026;-85
2022/09/10 00:31:46;;;;;;;7.43;3.42;;;;;;;-148.88;100.00;75023.72;5022375;28;20091;-84
2022/09/10 00:34:13;;;;;;;4.95;2.80;;;;;;;-148.88;99.71;75035.91;5023829;28;20049;-84
2022/09/10 00:36:40;;;;;;;5.10;3.25;;;;;;;-148.88;100.00;75052.16;5021865;28;20030;-83
2022/09/10 00:39:15;;;;;;;5.88;3.28;;;;;;;-148.88;100.00;75046.06;5022287;28;20056;-84
2022/09/10 00:41:46;;;;;;;8.00;3.20;;;;;;;-148.88;100.00;75044.03;5021765;28;20036;-84
2022/09/10 00:44:39;;;;;;;5.28;2.92;;;;;;;-148.88;100.00;75046.06;5021572;28;20072;-84
2022/09/10 00:47:28;;;;;;;6.68;3.30;;;;;;;-148.88;100.00;75062.31;5021641;28;20096;-84
2022/09/10 00:50:13;;;;;;;6.28;3.17;;;;;;;-148.88;100.00;75064.34;5020836;28;20451;-84
2022/09/10 00:52:39;;;;;;;6.10;3.22;;;;;;;-148.88;100.00;75062.31;5018197;28;20034;-83
2022/09/10 00:55:09;;;;;;;5.68;3.47;;;;;;;-148.88;100.00;75064.34;5016437;28;20057;-84
2022/09/10 00:57:35;;;;;;;5.20;3.13;;;;;;;-148.88;100.00;75070.44;5017445;28;20124;-84
2022/09/10 01:00:09;;;;;;;7.20;3.63;;;;;;;-148.88;100.00;75066.38;5018653;28;20030;-84
2022/09/10 01:02:35;;;;;;;7.53;3.85;;;;;;;-148.88;100.00;75068.41;5018872;28;20041;-83
2022/09/10 01:05:08;;;;;;;3.90;3.28;;;;;;;-148.88;100.00;75066.38;5018069;28;20021;-84
2022/09/10 01:07:34;;;;;;;7.95;3.80;;;;;;;-148.88;100.00;75064.34;5019888;28;20057;-83
2022/09/10 01:10:05;;;;;;;5.68;3.67;;;;;;;-148.88;100.00;75064.34;5018807;28;20030;-84
2022/09/10 01:12:40;;;;;;;5.28;3.70;;;;;;;-148.88;100.00;75062.31;5019016;28;20144;-84
2022/09/10 01:15:45;;;;;;;7.28;3.90;;;;;;;-148.88;100.00;75064.34;5020511;28;20535;-85
2022/09/10 01:18:13;;;;;;;7.07;4.15;;;;;;;-148.88;100.00;75066.38;5020431;28;20510;-84
2022/09/10 01:20:50;;;;;;;6.72;3.92;;;;;;;-148.88;100.00;75066.38;5019096;28;20447;-84
2022/09/10 01:23:16;;;;;;;7.40;4.20;;;;;;;-148.88;100.00;75068.41;5019864;28;20175;-85
2022/09/10 01:25:59;;;;;;;6.47;4.15;;;;;;;-148.88;100.00;75062.31;5019248;28;20030;-83
2022/09/10 01:28:32;;;;;;;7.80;4.35;;;;;;;-148.88;100.00;75064.34;5018042;28;20026;-83
2022/09/10 01:31:25;;;;;;;9.20;4.87;;;;;;;-148.88;100.00;75062.31;5016907;28;20547;-83
2022/09/10 01:34:03;;;;;;;9.00;4.63;;;;;;;-148.88;100.00;75050.13;5017410;28;20022;-83
2022/09/10 01:36:33;;;;;;;6.32;4.47;;;;;;;-148.88;100.00;75052.16;5013937;28;20287;-84
2022/09/10 01:39:01;;;;;;;9.15;4.70;;;;;;;-148.88;100.00;75058.25;5017245;28;20030;-82
2022/09/10 01:41:30;;;;;;;7.45;4.93;;;;;;;-148.88;100.00;75062.31;5023886;28;20026;-84
2022/09/10 01:43:56;;;;;;;8.23;5.13;;;;;;;-148.88;100.00;75064.34;5025115;28;20175;-82
2022/09/10 01:46:44;;;;;;;6.47;4.88;;;;;;;-148.88;100.00;75050.13;5025236;28;20021;-84
2022/09/10 01:49:17;;;;;;;7.47;4.65;;;;;;;-148.88;100.00;75060.28;5023673;28;20037;-83
2022/09/10 01:52:05;;;;;;;;;;;;;;;-148.88;100.00;75062.31;5022926;28;20025;-83
2022/09/10 01:54:47;;;;;;;9.50;5.90;;;;;;;-148.88;100.00;75062.31;5021224;28;20023;-83
2022/09/10 01:57:26;;;;;;;8.85;5.35;;;;;;;-148.88;100.00;75056.22;5020445;28;20056;-83
2022/09/10 02:00:18;;;;;;;11.25;5.60;;;;;;;-148.88;100.00;75064.34;5021212;28;20064;-84
2022/09/10 02:02:46;;;;;;;7.93;5.13;;;;;;;-148.88;100.00;75066.38;5021612;28;20030;-83
2022/09/10 02:05:13;;;;;;;9.65;5.43;;;;;;;-148.88;100.00;75070.44;5020659;28;20032;-83
2022/09/10 02:07:49;;;;;;;9.50;5.78;;;;;;;-148.88;100.00;75066.38;5021892;28;20085;-84
2022/09/10 02:10:17;;;;;;;11.07;5.28;;;;;;;-148.88;100.00;75062.31;5024841;28;20022;-83
2022/09/10 02:12:44;;;;;;;10.43;5.13;;;;;;;-148.88;100.00;75062.31;5020661;28;20407;-84
2022/09/10 02:15:10;;;;;;;9.38;5.88;;;;;;;-148.88;100.00;75048.09;5020631;28;20117;-84
2022/09/10 02:17:39;;;;;;;8.73;5.28;;;;;;;-148.88;100.00;75058.25;5022924;28;20022;-83
2022/09/10 02:20:13;;;;;;;10.32;5.22;;;;;;;-148.88;100.00;75058.25;5020530;28;20026;-83
2022/09/10 02:22:41;;;;;;;;;;;;;;;-148.88;100.00;75050.13;5021374;28;20507;-83
2022/09/10 02:25:20;;;;;;;11.60;5.95;;;;;;;-148.88;100.00;75054.19;5020056;28;19921;-83
2022/09/10 02:27:46;;;;;;;9.52;6.00;;;;;;;-148.88;100.00;75062.31;5020406;28;20022;-83
2022/09/10 02:30:15;;;;;;;7.47;6.03;;;;;;;-148.88;100.00;75062.31;5019721;28;20025;-84
2022/09/10 02:32:46;;;;;;;8.38;6.32;;;;;;;-148.88;100.00;75058.25;5018802;28;20072;-84
2022/09/10 02:35:14;;;;;;;9.15;6.47;;;;;;;-148.88;100.00;75060.28;5019277;28;20491;-83
2022/09/10 02:37:49;;;;;;;9.20;6.22;;;;;;;-148.88;100.00;75066.38;5017564;28;20121;-83
2022/09/10 02:43:09;;;;;;;14.02;6.93;;;;;;;-148.88;100.00;75078.56;5022853;28;20056;-82
2022/09/10 02:45:44;;;;;;;10.02;6.40;;;;;;;-148.88;100.00;75070.44;5019106;28;20107;-82
2022/09/10 02:48:16;;;;;;;11.10;7.10;;;;;;;-148.88;100.00;75062.31;5018970;28;20025;-83
2022/09/10 02:50:50;;;;;;;10.18;6.93;;;;;;;-148.88;100.00;75068.41;5018006;28;20022;-83
2022/09/10 02:53:19;;;;;;;10.50;7.40;;;;;;;-148.88;100.00;75072.47;5016712;28;20022;-83
2022/09/10 02:55:50;;;;;;;10.65;7.07;;;;;;;-148.88;100.00;75082.63;5017637;28;20021;-81
2022/09/10 02:58:20;;;;;;;10.13;7.07;;;;;;;-148.88;100.00;75086.69;5018274;28;20026;-83
2022/09/10 03:03:35;;;;;;;10.25;6.82;;;;;;;-148.88;100.00;75082.63;5018241;28;20049;-83
2022/09/10 03:06:00;;;;;;;10.88;6.90;;;;;;;-148.88;100.00;75090.72;5017990;28;20030;-82
2022/09/10 03:08:26;;;;;;;11.25;7.05;;;;;;;-148.88;100.00;75086.69;5019535;28;20528;-82
2022/09/10 03:10:51;;;;;;;8.35;6.47;;;;;;;-148.88;100.00;75074.50;5018834;28;20026;-82
2022/09/10 03:13:16;;;;;;;11.57;6.90;;;;;;;-148.88;100.00;75078.56;5019245;28;20100;-82
2022/09/10 03:15:50;;;;;;;13.02;6.97;;;;;;;-148.88;100.00;75078.56;5017990;28;20030;-82
2022/09/10 03:18:16;;;;;;;9.68;6.90;;;;;;;-148.88;100.00;75074.50;5018076;28;20510;-81
2022/09/10 03:20:44;;;;;;;9.38;7.53;;;;;;;-148.88;100.00;75080.59;5017254;28;20053;-82
2022/09/10 03:23:10;;;;;;;12.93;7.57;;;;;;;-148.88;100.00;75074.50;5018639;28;20022;-81
2022/09/10 03:25:35;;;;;;;7.55;6.60;;;;;;;-148.88;100.00;75080.59;5017756;28;20034;-82
2022/09/10 03:28:01;;;;;;;10.07;6.93;;;;;;;-148.88;100.00;75076.53;5018585;28;20052;-83
2022/09/10 03:30:31;;;;;;;8.45;6.53;;;;;;;-148.88;100.00;75072.47;5018423;28;20029;-84
2022/09/10 03:32:59;;;;;;;10.13;6.70;;;;;;;-148.88;100.00;75074.50;5016488;28;20048;-81
2022/09/10 03:35:24;;;;;;;9.65;6.55;;;;;;;-148.88;100.00;75068.41;5016283;28;20026;-81
2022/09/10 03:37:56;;;;;;;13.65;6.57;;;;;;;-148.88;100.00;75068.41;5016716;28;20034;-83
2022/09/10 03:40:22;;;;;;;9.10;6.85;;;;;;;-148.88;100.00;75066.38;5017443;28;20042;-83
2022/09/10 03:42:47;;;;;;;8.30;6.60;;;;;;;-148.88;100.00;75064.34;5016546;28;20105;-83
2022/09/10 03:45:15;;;;;;;10.43;6.93;;;;;;;-148.88;100.00;75082.63;5016498;28;20037;-81
2022/09/10 03:47:41;;;;;;;9.43;6.90;;;;;;;-148.88;100.00;75082.63;5015392;28;20033;-83
2022/09/10 03:50:10;;;;;;;10.20;6.85;;;;;;;-148.88;100.00;75082.63;5016533;28;20025;-83
2022/09/10 03:52:37;;;;;;;9.13;7.07;;;;;;;-148.88;100.00;75078.56;5018873;28;20034;-83
2022/09/10 03:55:03;;;;;;;9.70;6.85;;;;;;;-148.88;100.00;75078.56;5022904;28;20479;-83
2022/09/10 03:57:29;;;;;;;12.00;6.68;;;;;;;-148.88;100.00;75090.72;5017362;28;20391;-83
2022/09/10 03:59:55;;;;;;;10.43;7.30;;;;;;;-148.88;100.00;75086.69;5017620;28;20026;-83
2022/09/10 04:02:25;;;;;;;10.15;6.55;;;;;;;-148.88;100.00;75090.72;5016432;28;20022;-83
2022/09/10 04:04:50;;;;;;;11.88;5.70;;;;;;;-148.88;100.00;75094.81;5016934;28;20036;-83
2022/09/10 04:07:16;;;;;;;9.20;5.88;;;;;;;-148.88;100.00;75088.72;5017274;28;20057;-83
2022/09/10 04:09:41;;;;;;;8.45;5.55;;;;;;;-148.88;100.00;75086.69;5014933;28;20033;-83
2022/09/10 04:12:07;;;;;;;6.88;5.18;;;;;;;-148.88;100.00;75082.63;5014946;28;20117;-83
2022/09/10 04:14:33;;;;;;;8.57;5.15;;;;;;;-148.88;100.00;75084.66;5015017;28;20018;-85
2022/09/10 04:16:58;;;;;;;8.75;4.90;;;;;;;-148.88;100.00;75098.84;5015228;28;20133;-83
2022/09/10 04:19:29;;;;;;;7.07;4.60;;;;;;;-148.88;100.00;75090.72;5016764;28;20072;-83
2022/09/10 04:21:56;;;;;;;5.28;4.43;;;;;;;-148.88;100.00;75078.56;5015764;28;20037;-83
2022/09/10 04:24:22;;;;;;;8.38;5.18;;;;;;;-148.88;100.00;75086.69;5014996;28;20025;-82
2022/09/10 04:26:47;;;;;;;7.68;4.53;;;;;;;-148.88;100.00;75100.88;5015123;28;20049;-82
2022/09/10 04:29:13;;;;;;;8.15;4.45;;;;;;;-148.88;100.00;75102.91;5014786;28;20409;-83
2022/09/10 04:32:02;;;;;;;7.50;4.82;;;;;;;-148.88;100.00;75102.91;5016054;28;20081;-83
2022/09/10 04:34:31;;;;;;;7.07;4.25;;;;;;;-148.88;100.00;75096.81;5016063;28;20033;-83
2022/09/10 04:37:02;;;;;;;7.63;4.85;;;;;;;-148.88;100.00;75111.03;5016880;28;20025;-83
2022/09/10 04:39:31;;;;;;;7.50;4.68;;;;;;;-148.88;100.00;75115.09;5014533;28;20028;-84
2022/09/10 04:41:56;;;;;;;8.07;4.90;;;;;;;-148.88;100.00;75106.97;5016534;28;20156;-84
2022/09/10 04:44:22;;;;;;;7.57;4.45;;;;;;;-148.88;100.00;75102.91;5015268;28;20399;-84
2022/09/10 04:46:47;;;;;;;9.70;5.03;;;;;;;-148.88;100.00;75119.16;5015542;28;20033;-82
2022/09/10 04:49:13;;;;;;;8.40;4.78;;;;;;;-148.88;100.00;75109.00;5019111;28;20021;-80
2022/09/10 04:51:38;;;;;;;8.73;5.00;;;;;;;-148.88;100.00;75127.28;5019898;28;20034;-81
2022/09/10 04:54:03;;;;;;;6.45;4.50;;;;;;;-148.88;100.00;75127.28;5022068;28;20025;-82
2022/09/10 04:56:32;;;;;;;6.78;5.10;;;;;;;-148.88;100.00;75141.50;5026170;28;20036;-82
2022/09/10 04:58:57;;;;;;;8.32;5.15;;;;;;;-148.88;100.00;75131.34;5026830;28;20160;-81
2022/09/10 05:01:23;;;;;;;8.73;5.05;;;;;;;-148.88;100.00;75137.44;5025829;28;20029;-81
2022/09/10 05:03:48;;;;;;;11.32;5.25;;;;;;;-148.88;100.00;75139.47;5026030;28;20022;-82
2022/09/10 05:06:16;;;;;;;7.28;5.00;;;;;;;-148.88;100.00;75143.53;5026790;28;20040;-82
2022/09/10 05:08:41;;;;;;;8.70;5.30;;;;;;;-148.88;100.00;75145.56;5026095;28;20030;-82
2022/09/10 05:11:18;;;;;;;9.70;5.10;;;;;;;-148.88;100.00;75139.47;5025215;28;20064;-82
2022/09/10 05:13:44;;;;;;;6.80;4.97;;;;;;;-148.88;100.00;75141.50;5024535;28;20451;-85
2022/09/10 05:16:09;;;;;;;7.82;5.45;;;;;;;-148.88;100.00;75147.59;5024742;28;20510;-85
2022/09/10 05:18:35;;;;;;;7.10;5.53;;;;;;;-148.88;100.00;75147.59;5024529;28;20037;-85
2022/09/10 05:21:00;;;;;;;11.60;5.57;;;;;;;-148.88;100.00;75149.63;5024965;28;20080;-85
2022/09/10 05:23:28;;;;;;;10.07;5.78;;;;;;;-148.88;100.00;75151.66;5026012;28;20404;-85
2022/09/10 05:25:53;;;;;;;8.23;5.60;;;;;;;-148.88;100.00;75145.56;5024721;28;20105;-85
2022/09/10 05:28:20;;;;;;;8.70;5.30;;;;;;;-148.88;100.00;75143.53;5019729;28;20022;-84
2022/09/10 05:30:46;;;;;;;9.00;6.10;;;;;;;-148.88;100.00;75143.53;5019837;28;20080;-85
2022/09/10 05:33:11;;;;;;;8.75;5.90;;;;;;;-148.88;100.00;75147.59;5024157;28;20021;-85
2022/09/10 05:35:36;;;;;;;8.77;5.55;;;;;;;-148.88;100.00;75143.53;5021690;28;20026;-84
2022/09/10 05:38:02;;;;;;;9.80;5.57;;;;;;;-148.88;100.00;75145.56;5019992;28;20034;-83
2022/09/10 05:40:28;;;;;;;9.70;5.70;;;;;;;-148.88;100.00;75139.47;5021411;28;20143;-84
2022/09/10 05:42:54;;;;;;;10.52;5.60;;;;;;;-148.88;100.00;75139.47;5023018;28;20028;-84
2022/09/10 05:45:20;;;;;;;8.40;5.15;;;;;;;-148.88;100.00;75139.47;5021372;28;20025;-83
2022/09/10 05:47:46;;;;;;;6.65;4.65;;;;;;;-148.88;100.00;75135.41;5022009;28;20038;-83
2022/09/10 05:50:13;;;;;;;7.53;5.32;;;;;;;-148.88;100.00;75131.34;5020592;28;20025;-83
2022/09/10 05:52:39;;;;;;;9.25;5.10;;;;;;;-148.88;100.00;75131.34;5021326;28;20052;-83
2022/09/10 05:55:05;;;;;;;8.05;5.50;;;;;;;-148.88;100.00;75131.34;5019388;28;20018;-83
2022/09/10 05:57:30;;;;;;;8.00;5.40;;;;;;;-148.88;100.00;75127.28;5021422;28;20025;-84
2022/09/10 05:59:55;;;;;;;7.47;4.70;;;;;;;-148.88;100.00;75115.09;5019490;28;20030;-84
2022/09/10 06:02:21;;;;;;;11.38;5.75;;;;;;;-148.88;100.00;75115.09;5020716;28;20545;-84
2022/09/10 06:04:46;;;;;;;7.53;5.35;;;;;;;-148.88;100.00;75119.16;5021821;28;20029;-83
2022/09/10 06:07:11;;;;;;;11.02;5.43;;;;;;;-148.88;100.00;75123.22;5019068;28;20052;-83
2022/09/10 06:09:36;;;;;;;11.38;5.97;;;;;;;-148.88;100.00;75119.16;5019699;28;20075;-83
2022/09/10 06:12:06;;;;;;;7.20;5.20;;;;;;;-148.88;100.00;75121.19;5020961;28;20142;-83
2022/09/10 06:14:31;;;;;;;9.02;4.65;;;;;;;-148.88;100.00;75115.09;5020630;28;20057;-84
2022/09/10 06:16:57;;;;;;;7.97;3.92;;;;;;;-148.88;100.00;75113.06;5022392;28;20080;-83
2022/09/10 06:19:22;;;;;;;6.45;4.28;;;;;;;-148.88;100.00;75113.06;5019832;28;20022;-84
2022/09/10 06:21:49;;;;;;;9.05;4.60;;;;;;;-148.88;100.00;75111.03;5020073;28;20041;-83
2022/09/10 06:24:14;;;;;;;5.65;3.80;;;;;;;-148.88;100.00;75106.97;5018347;28;20144;-83
2022/09/10 06:26:40;;;;;;;7.88;3.67;;;;;;;-148.88;100.00;75104.94;5018242;28;20045;-83
2022/09/10 06:29:06;;;;;;;6.05;3.33;;;;;;;-148.88;100.00;75102.91;5017711;28;20025;-83
2022/09/10 06:31:33;;;;;;;5.78;3.38;;;;;;;-148.88;100.00;75082.63;5018809;28;20072;-84
2022/09/10 06:33:59;;;;;;;7.50;3.40;;;;;;;-148.88;100.00;75072.47;5018602;28;20032;-84
2022/09/10 06:36:24;;;;;;;5.38;3.13;;;;;;;-148.88;99.26;75070.44;5019348;28;20096;-83
2022/09/10 06:38:54;;;;;;;5.05;2.90;;;;;;;-148.88;98.28;75064.34;5019937;28;20553;-81
2022/09/10 06:41:19;;;;;;;4.78;2.83;;;;;;;-148.88;97.34;75064.34;5020133;28;20026;-83
2022/09/10 06:43:45;;;;;;;5.72;3.05;;;;;;;-148.88;97.69;75046.06;5018275;28;20028;-83
2022/09/10 06:46:14;;;;;;;4.97;2.72;;;;;;;-148.88;97.08;75033.88;5015588;28;20022;-82
2022/09/10 06:48:40;;;;;;;6.45;2.80;;;;;;;-148.88;95.79;75027.78;5015563;28;20014;-83
2022/09/10 06:51:07;;;;;;;6.25;2.75;;;;;;;-148.88;96.27;75017.63;5016479;28;20024;-83
2022/09/10 06:53:32;;;;;;;4.90;2.88;;;;;;;-148.88;96.64;75017.63;5018010;28;20149;-83
2022/09/10 06:55:59;;;;;;;4.82;2.88;;;;;;;-148.88;95.44;75013.56;5019004;28;20057;-84
2022/09/10 06:58:26;;;;;;;5.78;2.90;;;;;;;-148.88;96.03;75005.44;5020355;28;20050;-83
2022/09/10 07:00:51;;;;;;;5.13;3.00;;;;;;;-148.88;95.27;75005.44;5018634;28;20053;-83
2022/09/10 07:03:18;;;;;;;7.65;3.45;;;;;;;-148.88;95.23;74999.34;5020559;28;20049;-85
2022/09/10 07:05:45;;;;;;;5.95;3.72;;;;;;;-148.88;95.72;74989.19;5018374;28;20438;-82
2022/09/10 07:08:19;;;;;;;5.32;3.42;;;;;;;-148.88;94.94;74995.28;5018917;28;20451;-84
2022/09/10 07:10:45;;;;;;;7.07;4.00;;;;;;;-148.88;93.81;74977.00;5018754;28;20037;-84
2022/09/10 07:13:14;;;;;;;5.75;3.75;;;;;;;-148.88;94.41;74958.72;5017943;28;20026;-83
2022/09/10 07:15:44;;;;;;;5.50;4.05;;;;;;;-148.88;94.70;74946.53;5019785;28;20030;-84
2022/09/10 07:18:13;;;;;;;6.55;4.60;;;;;;;-148.88;93.21;74952.63;5019482;28;20027;-84
2022/09/10 07:20:42;;;;;;;8.38;4.65;;;;;;;-148.88;92.34;74948.56;5020805;28;20049;-83
2022/09/10 07:23:09;;;;;;;6.50;4.00;;;;;;;-148.88;92.21;74948.56;5019091;28;20419;-85
2022/09/10 07:25:34;;;;;;;6.93;4.00;;;;;;;-148.88;92.01;74952.63;5016523;28;20037;-84
2022/09/10 07:28:00;;;;;;;6.35;4.13;;;;;;;-148.88;91.87;74952.63;5019518;28;20018;-83
2022/09/10 07:30:27;;;;;;;4.78;3.70;;;;;;;-148.88;92.10;74960.75;5020205;28;20021;-85
2022/09/10 07:32:53;;;;;;;6.80;3.97;;;;;;;-148.88;93.00;74952.63;5019841;28;20472;-84
2022/09/10 07:35:18;;;;;;;6.05;3.80;;;;;;;-148.88;91.39;74968.88;5018474;28;20053;-84
2022/09/10 07:37:44;;;;;;;5.15;3.88;;;;;;;-148.88;91.90;74968.88;5019555;28;20419;-84
2022/09/10 07:40:10;;;;;;;6.78;3.92;;;;;;;-148.88;92.78;74964.81;5019865;28;20076;-84
2022/09/10 07:42:36;;;;;;;4.82;3.60;;;;;;;-148.88;93.33;74952.63;5020458;28;20026;-85
2022/09/10 07:45:04;;;;;;;5.45;3.88;;;;;;;-148.88;93.36;74942.47;5018390;28;20029;-84
2022/09/10 07:47:29;;;;;;;5.32;3.83;;;;;;;-148.88;92.58;74944.53;5019962;28;20344;-84
2022/09/10 07:49:55;;;;;;;5.93;3.70;;;;;;;-148.88;92.02;74944.53;5018915;28;20472;-84
2022/09/10 07:52:20;;;;;;;6.85;4.32;;;;;;;-148.88;92.81;74946.53;5018581;28;20060;-84
2022/09/10 07:54:46;;;;;;;8.07;4.85;;;;;;;-148.88;92.21;74942.47;5018220;28;20034;-85
2022/09/10 07:57:11;;;;;;;6.22;4.20;;;;;;;-148.88;91.28;74938.44;5017585;28;20468;-84
2022/09/10 07:59:36;;;;;;;6.88;4.30;;;;;;;-148.88;91.18;74936.41;5018808;28;20117;-83
2022/09/10 08:02:02;;;;;;;6.43;4.70;;;;;;;-148.88;91.36;74940.47;5018396;28;20054;-83
2022/09/10 08:04:36;;;;;;;7.13;5.32;;;;;;;-148.88;91.05;74946.53;5014452;28;20044;-84
2022/09/10 08:07:01;;;;;;;9.18;5.68;;;;;;;-148.88;91.07;74956.69;5017431;28;20033;-84
2022/09/10 08:09:26;;;;;;;7.00;4.82;;;;;;;-148.88;90.78;74960.75;5018122;28;20112;-84
2022/09/10 08:11:52;;;;;;;7.35;5.50;;;;;;;-148.88;91.40;74958.72;5019214;28;20026;-84
2022/09/10 08:14:18;;;;;;;9.77;5.38;;;;;;;-148.88;91.46;74964.81;5017396;28;20034;-85
2022/09/10 08:16:43;;;;;;;8.43;5.10;;;;;;;-148.88;91.35;74968.88;5018560;28;20036;-84
2022/09/10 08:19:09;;;;;;;7.45;5.55;;;;;;;-148.88;91.42;74968.88;5018476;28;20045;-83
2022/09/10 08:21:35;;;;;;;7.85;5.97;;;;;;;-148.88;90.97;74968.88;5017452;28;20480;-82
2022/09/10 08:24:01;;;;;;;6.78;5.78;;;;;;;-148.88;91.47;74972.94;5017841;28;20129;-84
2022/09/10 08:26:27;;;;;;;8.52;4.88;;;;;;;-148.88;92.00;74983.09;5016984;28;20057;-84
2022/09/10 08:28:57;;;;;;;9.77;6.22;;;;;;;-148.88;91.83;74981.06;5017225;28;20025;-83
2022/09/10 08:31:25;;;;;;;7.40;6.35;;;;;;;-148.88;91.88;74981.06;5018268;28;20033;-83
2022/09/10 08:33:52;;;;;;;8.80;6.05;;;;;;;-148.88;92.52;74979.03;5019421;28;20029;-84
2022/09/10 08:36:18;;;;;;;10.23;7.05;;;;;;;-148.88;92.71;74983.09;5017751;28;20057;-84
2022/09/10 08:38:44;;;;;;;8.73;7.07;;;;;;;-148.88;93.00;74981.06;5017234;28;20109;-84
2022/09/10 08:41:43;;;;;;;9.60;7.20;;;;;;;-148.88;93.31;74970.91;5016027;28;20085;-83
2022/09/10 08:44:08;;;;;;;12.02;8.63;;;;;;;-148.88;91.92;74972.94;5014249;28;20030;-83
2022/09/10 08:46:47;;;;;;;10.57;8.93;;;;;;;-148.88;90.84;74968.88;5016473;28;20399;-83
2022/09/10 08:49:39;;;;;;;13.07;8.70;;;;;;;-148.88;92.00;74956.69;5018090;28;20252;-84
2022/09/10 08:52:28;;;;;;;9.48;8.30;;;;;;;-148.88;92.29;74956.69;5020099;28;20018;-84
2022/09/10 08:55:12;;;;;;;11.95;9.27;;;;;;;-148.88;91.23;74948.56;5020235;28;20104;-84
2022/09/10 08:57:44;;;;;;;9.55;8.52;;;;;;;-148.88;91.44;74940.47;5021429;28;20024;-84
2022/09/10 09:00:33;;;;;;;12.30;8.98;;;;;;;-148.88;90.23;74936.41;5022037;28;20045;-84
2022/09/10 09:03:09;;;;;;;9.90;8.43;;;;;;;-148.88;91.48;74918.13;5021777;28;20037;-85
2022/09/10 09:05:48;;;;;;;10.77;8.32;;;;;;;-148.88;90.24;74920.16;5022547;28;20034;-84
2022/09/10 09:08:21;;;;;;;12.05;9.00;;;;;;;-148.88;89.48;74926.25;5020600;28;20021;-86
2022/09/10 09:10:49;;;;;;;9.80;8.82;;;;;;;-148.88;89.45;74907.97;5023237;28;20030;-85
2022/09/10 09:13:33;;;;;;;9.80;8.18;;;;;;;-148.88;88.46;74905.94;5023035;28;20034;-83
2022/09/10 09:16:31;;;;;;;8.32;7.50;;;;;;;-148.88;90.22;74912.03;5019853;28;20030;-83
2022/09/10 09:19:02;;;;;;;8.38;7.53;;;;;;;-148.88;90.25;74916.09;5016891;28;20049;-85
2022/09/10 09:21:44;;;;;;;8.07;7.28;;;;;;;-148.88;89.46;74899.84;5017473;28;20024;-84
2022/09/10 09:24:45;;;;;;;7.35;6.65;;;;;;;-148.88;89.67;74889.69;5019282;28;20087;-83
2022/09/10 09:27:15;;;;;;;8.25;7.30;;;;;;;-148.88;89.58;74889.69;5020132;28;20022;-84
2022/09/10 09:30:01;;;;;;;8.65;7.75;;;;;;;-148.88;87.40;74895.78;5018756;28;20026;-83
2022/09/10 09:32:31;;;;;;;8.35;7.55;;;;;;;-148.88;87.75;74893.75;5018983;28;20049;-84
2022/09/10 09:35:26;;;;;;;9.48;8.32;;;;;;;-148.88;87.24;74883.59;5020391;28;20396;-84
2022/09/10 09:38:03;;;;;;;;;;;;;;;-148.88;87.92;74883.59;5019235;28;20033;-84
2022/09/10 09:40:43;;;;;;;9.63;7.43;;;;;;;-148.88;86.78;74883.59;5017795;28;19952;-83
2022/09/10 09:43:22;;;;;;;8.70;7.75;;;;;;;-148.88;86.03;74879.53;5018166;28;20479;-84
2022/09/10 09:45:49;;;;;;;8.80;8.00;;;;;;;-148.88;86.52;74871.41;5020414;28;20476;-85
2022/09/10 09:48:17;;;;;;;9.35;8.40;;;;;;;-148.88;85.79;74863.28;5020245;28;20025;-83
2022/09/10 09:50:55;;;;;;;7.60;6.90;;;;;;;-148.88;87.42;74849.06;5020516;28;20037;-83
2022/09/10 09:53:25;;;;;;;7.70;6.85;;;;;;;-148.88;87.71;74834.84;5020364;28;20026;-84
2022/09/10 09:55:53;;;;;;;9.27;6.85;;;;;;;-148.88;86.62;74826.72;5021383;28;20021;-84
2022/09/10 09:58:25;;;;;;;7.20;6.50;;;;;;;-148.88;85.83;74830.78;5018946;28;20030;-85
2022/09/10 10:01:03;;;;;;;7.82;6.60;;;;;;;-148.88;85.98;74810.50;5016015;28;20456;-84
2022/09/10 10:03:30;;;;;;;6.55;5.95;;;;;;;-148.88;84.65;74804.41;5019241;28;20096;-84
2022/09/10 10:06:07;;;;;;;6.82;6.00;;;;;;;-148.88;84.47;74794.25;5019128;28;20026;-82
2022/09/10 10:08:43;;;;;;;6.65;5.95;;;;;;;-148.88;84.31;74782.06;5020108;28;20029;-83
2022/09/10 10:11:12;;;;;;;7.00;5.53;;;;;;;-148.88;83.28;74786.13;5017579;28;20125;-82
2022/09/10 10:13:43;;;;;;;5.80;5.20;;;;;;;-148.88;82.98;74769.88;5019037;28;20476;-83
2022/09/10 10:16:22;;;;;;;8.40;5.70;;;;;;;-148.88;81.43;74741.44;5017100;28;20030;-82
2022/09/10 10:18:49;;;;;;;6.35;5.50;;;;;;;-148.88;79.56;74753.63;5019321;28;20026;-84
2022/09/10 10:21:17;;;;;;;8.25;6.18;;;;;;;-148.88;82.27;74733.31;5020535;28;20535;-82
2022/09/10 10:23:43;;;;;;;5.65;4.90;;;;;;;-148.88;78.77;74731.28;5018080;28;20021;-83
2022/09/10 10:26:27;;;;;;;5.60;4.78;;;;;;;-148.88;75.06;74725.19;5019212;28;20034;-84
2022/09/10 10:29:05;;;;;;;5.88;5.07;;;;;;;-148.88;78.10;74694.75;5018616;28;20022;-84
2022/09/10 10:31:39;;;;;;;6.03;5.38;;;;;;;-148.88;78.53;74682.56;5018522;28;20028;-84
2022/09/10 10:34:16;;;;;;;5.00;4.50;;;;;;;-148.88;79.41;74668.34;5019257;28;20457;-82
2022/09/10 10:37:13;;;;;;;5.60;4.53;;;;;;;-148.88;78.13;74666.31;5017714;28;20381;-83
2022/09/10 10:39:41;;;;;;;5.15;4.43;;;;;;;-148.88;77.90;74652.09;5016582;28;20033;-82
2022/09/10 10:42:28;;;;;;;6.97;4.50;;;;;;;-148.88;77.43;74654.13;5017968;28;20030;-83
2022/09/10 10:45:07;;;;;;;5.40;4.10;;;;;;;-148.88;76.80;74656.16;5018263;28;20038;-84
2022/09/10 10:47:47;;;;;;;4.30;3.85;;;;;;;-148.88;76.15;74656.16;5018171;28;20437;-83
2022/09/10 10:50:18;;;;;;;4.78;4.30;;;;;;;-148.88;76.11;74652.09;5018992;28;20021;-84
2022/09/10 10:53:05;;;;;;;6.13;4.40;;;;;;;-148.88;75.21;74646.00;5019021;28;20494;-85
2022/09/10 10:56:01;;;;;;;5.93;4.57;;;;;;;-148.88;75.59;74643.97;5019114;28;20025;-84
2022/09/10 10:59:18;;;;;;;4.60;4.20;;;;;;;-148.88;72.31;74654.13;5019493;28;20036;-84
2022/09/10 11:01:52;;;;;;;4.95;4.07;;;;;;;-148.88;73.32;74625.69;5017857;28;20144;-83
2022/09/10 11:04:50;;;;;;;4.43;3.90;;;;;;;-148.88;73.42;74623.66;5017052;28;20029;-82
2022/09/10 11:07:30;;;;;;;4.75;4.22;;;;;;;-148.88;74.79;74613.50;5019577;28;20026;-83
2022/09/10 11:10:03;;;;;;;4.88;4.32;;;;;;;-148.88;74.86;74607.41;5019499;28;20065;-84
2022/09/10 11:12:38;;;;;;;6.60;3.93;;;;;;;-148.88;73.08;74613.50;5019181;28;20026;-83
2022/09/10 11:15:43;;;;;;;5.78;4.25;;;;;;;-148.88;75.48;74599.28;5018762;28;20330;-83
2022/09/10 11:18:19;;;;;;;3.67;3.30;;;;;;;-148.88;73.06;74591.19;5015319;28;20120;-82
2022/09/10 11:21:06;;;;;;;4.03;3.10;;;;;;;-148.88;72.20;74591.19;5017331;28;20109;-82
2022/09/10 11:23:42;;;;;;;4.80;3.22;;;;;;;-148.88;73.54;74570.88;5017485;28;20041;-83
2022/09/10 11:26:17;;;;;;;3.90;3.50;;;;;;;-148.88;72.14;74585.09;5017686;28;20026;-83
2022/09/10 11:29:21;;;;;;;5.15;3.10;;;;;;;-148.88;72.65;74556.66;5018012;28;20093;-82
2022/09/10 11:31:56;;;;;;;4.22;2.78;;;;;;;-148.88;69.58;74540.41;5020518;28;20113;-83
2022/09/10 11:34:24;;;;;;;3.40;2.60;;;;;;;-148.88;69.35;74530.25;5021042;28;20109;-81
2022/09/10 11:36:57;;;;;;;3.22;2.78;;;;;;;-148.88;69.66;74514.00;5018839;28;20057;-82
2022/09/10 11:39:28;;;;;;;3.67;3.30;;;;;;;-148.88;68.83;74505.88;5018190;28;20026;-80